Terminal Aerodrome Forecast
Issued by NWS Green Bay, WI

Home | Current Version | Previous Version | Text Only | Print | Product List | Glossary Off
Versions: 1 2 3 4 5 6 7 8 9 10 11 12 13 14 15 16 17 18 19 20 21 22 23 24 25 26 27 28 29 30 31 32 33 34 35 36 37 38 39 40

160
FTUS43 KGRB 250520
TAFGRB
TAF
KGRB 250520Z 2506/2606 12006KT P6SM SCT025 BKN070
      TEMPO 2511/2513 BKN020
     FM251300 15012G18KT P6SM BKN015 OVC040 PROB30 2517/2521 4SM
      -SHRA BR
     FM252100 17014G21KT 4SM SHRA BKN015 OVC025 PROB30 2521/2601 2SM
      TSRA BR BKN007 OVC015CB
     FM260200 24011G18KT P6SM SCT015 BKN035=

USA.gov is the U.S. government's official web portal to all federal, state and local government web resources and services.